Time;durP1;ratioP1;P1;durP2;ratioP2;P2;SDS_P1;SDS_P2;PMS_P1;PMS_P2;Temp;Humidity;BMP_temperature;BMP_pressure;BME280_temperature;BME280_humidity;BME280_pressure;Samples;Min_cycle;Max_cycle;Signal;HPM_P1;HPM_P2
2021/05/04 00:00:13;;;;;;;3.39;1.64;;;;;;;6.22;56.07;99037.66;360238;111;1962952;-72
2021/05/04 00:01:20;;;;;;;3.65;1.47;;;;;;;6.24;56.06;99032.09;360354;110;1962022;-73
2021/05/04 00:02:26;;;;;;;4.53;1.72;;;;;;;6.22;56.13;99044.84;336231;111;2434031;-73
2021/05/04 00:03:31;;;;;;;3.13;1.49;;;;;;;6.20;56.15;99045.06;334426;110;1961924;-72
2021/05/04 00:04:36;;;;;;;3.27;1.49;;;;;;;6.20;56.11;99042.38;353746;111;1961957;-73
2021/05/04 00:05:42;;;;;;;3.77;1.44;;;;;;;6.20;56.27;99052.28;355606;111;1961994;-72
2021/05/04 00:06:51;;;;;;;5.82;3.45;;;;;;;6.15;56.61;99036.77;349715;113;1961038;-72
2021/05/04 00:07:56;;;;;;;5.06;1.80;;;;;;;6.17;56.31;99029.36;358394;110;1961923;-73
2021/05/04 00:09:01;;;;;;;3.96;1.58;;;;;;;6.13;56.68;99031.58;357003;111;1961857;-72
2021/05/04 00:10:08;;;;;;;3.24;1.46;;;;;;;6.16;56.43;99027.68;361933;111;1961941;-72
2021/05/04 00:11:13;;;;;;;2.75;1.57;;;;;;;6.12;56.77;99037.98;361764;109;1963993;-72
2021/05/04 00:12:19;;;;;;;4.74;1.84;;;;;;;6.12;56.89;99037.16;314768;110;2746986;-72
2021/05/04 00:13:24;;;;;;;2.94;1.65;;;;;;;6.08;57.26;99033.19;346421;110;1963048;-71
2021/05/04 00:14:31;;;;;;;4.33;1.64;;;;;;;6.08;57.08;99039.37;357845;111;1961917;-73
2021/05/04 00:15:37;;;;;;;4.61;2.29;;;;;;;6.11;57.13;99039.02;359684;109;1963020;-73
2021/05/04 00:16:45;;;;;;;4.98;2.29;;;;;;;6.06;57.16;99043.27;363247;111;1962025;-74
2021/05/04 00:17:50;;;;;;;3.47;1.76;;;;;;;6.06;57.09;99045.95;361988;110;1961934;-74
2021/05/04 00:18:56;;;;;;;3.02;1.61;;;;;;;6.06;57.15;99033.39;364837;111;1962936;-74
2021/05/04 00:20:03;;;;;;;5.01;1.97;;;;;;;6.05;57.40;99038.94;364889;111;1961902;-72
2021/05/04 00:21:08;;;;;;;5.49;1.80;;;;;;;6.04;57.30;99045.33;357019;109;1960897;-73
2021/05/04 00:22:13;;;;;;;4.88;1.89;;;;;;;6.02;57.56;99042.00;361676;110;1961923;-73
2021/05/04 00:23:19;;;;;;;4.61;1.64;;;;;;;6.04;57.28;99038.11;358472;110;1962014;-73
2021/05/04 00:24:24;;;;;;;3.81;1.62;;;;;;;6.01;57.63;99046.55;361474;111;1963036;-73
2021/05/04 00:25:31;;;;;;;4.29;1.74;;;;;;;5.99;57.65;99040.53;361476;112;1961998;-74
2021/05/04 00:26:38;;;;;;;3.38;1.59;;;;;;;6.02;57.62;99037.47;361641;112;1961964;-73
2021/05/04 00:27:43;;;;;;;3.53;1.71;;;;;;;6.03;57.68;99031.07;361079;110;1961949;-74
2021/05/04 00:28:48;;;;;;;6.46;2.05;;;;;;;6.02;57.72;99048.19;360093;110;1960997;-74
2021/05/04 00:29:53;;;;;;;4.07;1.86;;;;;;;6.05;57.74;99038.94;359855;110;1961935;-73
2021/05/04 00:30:59;;;;;;;4.48;2.30;;;;;;;6.03;57.55;99036.44;361644;110;1962057;-73
2021/05/04 00:32:06;;;;;;;4.46;1.81;;;;;;;5.97;57.91;99042.57;316984;110;2797863;-73
2021/05/04 00:33:11;;;;;;;4.36;1.51;;;;;;;5.99;57.98;99047.75;360936;110;1962950;-74
2021/05/04 00:34:16;;;;;;;2.80;1.52;;;;;;;5.93;58.10;99052.86;362193;110;1962002;-73
2021/05/04 00:35:22;;;;;;;4.46;1.94;;;;;;;5.93;58.04;99052.86;363862;111;1961883;-73
2021/05/04 00:36:27;;;;;;;3.64;1.98;;;;;;;5.94;57.92;99053.68;359182;109;1963918;-73
2021/05/04 00:37:33;;;;;;;4.69;1.76;;;;;;;5.91;57.88;99041.45;355459;114;1961948;-73
2021/05/04 00:38:39;;;;;;;6.06;2.59;;;;;;;5.89;58.13;99045.34;326344;110;2900984;-71
2021/05/04 00:39:44;;;;;;;3.53;1.58;;;;;;;5.90;58.18;99049.68;337807;110;1961892;-72
2021/05/04 00:40:50;;;;;;;4.56;2.24;;;;;;;5.83;58.62;99054.98;361976;111;1962845;-73
2021/05/04 00:41:56;;;;;;;3.87;1.91;;;;;;;5.85;58.61;99049.45;362582;111;1962022;-72
2021/05/04 00:43:01;;;;;;;2.99;1.66;;;;;;;5.85;58.59;99054.81;364534;111;1962061;-73
2021/05/04 00:44:08;;;;;;;4.23;2.43;;;;;;;5.85;58.59;99050.27;319739;112;2896887;-73
2021/05/04 00:45:15;;;;;;;4.57;2.37;;;;;;;5.83;58.52;99054.16;361727;112;1961911;-73
2021/05/04 00:46:23;;;;;;;4.91;1.93;;;;;;;5.80;58.76;99060.73;360943;110;1962923;-73
2021/05/04 00:47:28;;;;;;;3.83;1.73;;;;;;;5.86;58.61;99059.96;340182;110;1964968;-73
2021/05/04 00:48:33;;;;;;;3.93;1.67;;;;;;;5.88;58.44;99051.74;352263;113;1962027;-73
2021/05/04 00:49:39;;;;;;;3.87;1.86;;;;;;;5.86;58.61;99057.28;354711;112;1961921;-74
2021/05/04 00:50:46;;;;;;;3.79;1.80;;;;;;;5.86;58.91;99054.60;359787;110;1961972;-74
2021/05/04 00:51:56;;;;;;;4.51;1.76;;;;;;;5.84;58.98;99069.21;318718;110;2061922;-73
2021/05/04 00:53:03;;;;;;;5.58;2.05;;;;;;;5.85;58.68;99058.31;314816;110;2231951;-74
2021/05/04 00:54:10;;;;;;;4.77;1.93;;;;;;;5.86;58.56;99056.45;360262;110;1961905;-72
2021/05/04 00:55:15;;;;;;;4.87;1.88;;;;;;;5.84;58.95;99059.31;355566;112;1963996;-73
2021/05/04 00:56:23;;;;;;;5.51;2.15;;;;;;;5.84;58.70;99059.31;336512;111;2236921;-73
2021/05/04 00:57:28;;;;;;;4.57;2.10;;;;;;;5.80;59.03;99065.27;361406;110;1961808;-74
2021/05/04 00:58:37;;;;;;;4.47;1.92;;;;;;;5.82;58.89;99057.84;364685;110;1961849;-74
2021/05/04 00:59:44;;;;;;;5.31;1.86;;;;;;;5.81;59.11;99069.59;361905;112;1961973;-73
2021/05/04 01:00:50;;;;;;;5.39;2.04;;;;;;;5.85;58.73;99052.95;317339;111;2886049;-73
2021/05/04 01:01:56;;;;;;;6.42;2.22;;;;;;;5.83;59.21;99057.66;357734;110;1961949;-73
2021/05/04 01:03:03;;;;;;;4.41;1.91;;;;;;;5.85;58.85;99060.17;361627;112;1961948;-73
2021/05/04 01:04:09;;;;;;;3.97;1.89;;;;;;;5.85;58.95;99057.48;361795;111;1962020;-74
2021/05/04 01:05:15;;;;;;;4.74;2.42;;;;;;;5.84;58.92;99059.31;326310;110;1981776;-73
2021/05/04 01:06:20;;;;;;;5.51;2.14;;;;;;;5.82;58.84;99049.80;360667;111;1960906;-73
2021/05/04 01:07:28;;;;;;;4.24;1.84;;;;;;;5.81;59.08;99059.70;362577;110;1960920;-72
2021/05/04 01:08:34;;;;;;;4.50;2.30;;;;;;;5.81;58.75;99054.34;316809;110;2228076;-73
2021/05/04 01:09:39;;;;;;;2.89;1.55;;;;;;;5.81;58.75;99051.66;340455;110;1961941;-73
2021/05/04 01:10:46;;;;;;;5.71;2.18;;;;;;;5.77;59.10;99055.76;358282;110;1961937;-73
2021/05/04 01:11:53;;;;;;;5.11;2.21;;;;;;;5.77;59.02;99053.08;358038;111;1961992;-74
2021/05/04 01:12:58;;;;;;;4.03;1.92;;;;;;;5.76;59.09;99059.44;314091;110;2126941;-72
2021/05/04 01:14:04;;;;;;;5.11;2.20;;;;;;;5.76;59.02;99053.25;350348;112;1962034;-72
2021/05/04 01:15:10;;;;;;;4.56;2.29;;;;;;;5.78;59.21;99075.34;355815;111;1963054;-74
2021/05/04 01:16:16;;;;;;;6.41;2.32;;;;;;;5.77;59.13;99052.22;359891;105;1960658;-73
2021/05/04 01:17:22;;;;;;;6.56;2.42;;;;;;;5.73;59.15;99057.14;314473;113;2716995;-73
2021/05/04 01:18:28;;;;;;;4.46;2.09;;;;;;;5.73;59.45;99057.97;338066;113;1961975;-72
2021/05/04 01:19:33;;;;;;;4.66;1.96;;;;;;;5.76;59.36;99054.08;355290;114;1964965;-73
2021/05/04 01:20:38;;;;;;;4.77;2.11;;;;;;;5.79;59.52;99050.19;350871;114;1962028;-73
2021/05/04 01:21:47;;;;;;;5.56;2.41;;;;;;;5.73;59.67;99047.25;345330;117;1961919;-73
2021/05/04 01:22:53;;;;;;;5.25;2.30;;;;;;;5.73;59.56;99036.53;344481;115;1962041;-73
2021/05/04 01:23:59;;;;;;;6.34;2.93;;;;;;;5.80;59.40;99046.51;345582;115;1962923;-72
2021/05/04 01:25:07;;;;;;;5.74;2.42;;;;;;;5.78;59.66;99049.36;346107;115;1961971;-73
2021/05/04 01:26:13;;;;;;;4.93;2.19;;;;;;;5.79;59.45;99037.61;346248;116;1962056;-72
2021/05/04 01:27:18;;;;;;;4.43;2.24;;;;;;;5.81;59.37;99038.26;346335;117;1962935;-73
2021/05/04 01:28:24;;;;;;;5.88;2.19;;;;;;;5.80;59.67;99041.15;345549;116;1962013;-72
2021/05/04 01:29:30;;;;;;;5.44;2.32;;;;;;;5.76;59.43;99043.36;318166;116;2481845;-73
2021/05/04 01:30:37;;;;;;;6.73;2.84;;;;;;;5.78;59.67;99040.50;344634;115;1961912;-72
2021/05/04 01:31:43;;;;;;;4.88;2.46;;;;;;;5.79;59.40;99034.93;340539;115;1962025;-72
2021/05/04 01:32:49;;;;;;;5.07;2.55;;;;;;;5.79;59.77;99053.69;343537;116;1961920;-73
2021/05/04 01:33:54;;;;;;;4.68;2.57;;;;;;;5.81;59.59;99045.47;318357;115;2510915;-72
2021/05/04 01:35:00;;;;;;;4.80;2.41;;;;;;;5.80;59.48;99047.33;333709;117;1964023;-73
2021/05/04 01:36:06;;;;;;;5.27;2.04;;;;;;;5.79;59.59;99060.91;343265;117;1962012;-72
2021/05/04 01:37:11;;;;;;;4.69;2.32;;;;;;;5.77;59.75;99047.72;346226;116;1962956;-72
2021/05/04 01:38:17;;;;;;;4.96;2.37;;;;;;;5.78;59.60;99033.28;345493;115;1962048;-72
2021/05/04 01:39:30;;;;;;;5.23;2.50;;;;;;;5.79;59.78;99050.19;301472;116;2803921;-73
2021/05/04 01:40:37;;;;;;;7.02;2.57;;;;;;;5.76;60.12;99056.76;346021;116;1961909;-73
2021/05/04 01:41:43;;;;;;;5.07;2.33;;;;;;;5.71;60.42;99043.92;312456;115;2917944;-74
2021/05/04 01:42:49;;;;;;;4.41;2.26;;;;;;;5.71;60.29;99059.17;347003;115;1961976;-71
2021/05/04 01:43:54;;;;;;;4.97;2.22;;;;;;;5.76;59.95;99047.89;346143;115;1961939;-71
2021/05/04 01:44:59;;;;;;;4.94;2.28;;;;;;;5.75;60.12;99060.47;346197;117;1962058;-71
2021/05/04 01:46:04;;;;;;;6.29;3.04;;;;;;;5.78;60.14;99064.62;346210;117;1962057;-74
2021/05/04 01:47:10;;;;;;;6.52;2.87;;;;;;;5.78;60.08;99065.45;345927;115;1963812;-72
2021/05/04 01:48:17;;;;;;;7.01;2.52;;;;;;;5.73;60.43;99059.82;290202;115;2219366;-72
2021/05/04 01:49:22;;;;;;;5.61;2.25;;;;;;;5.76;60.33;99062.12;345984;115;1961954;-72
2021/05/04 01:50:28;;;;;;;4.84;2.47;;;;;;;5.80;59.96;99058.05;344327;115;1962952;-72
2021/05/04 01:51:37;;;;;;;5.97;2.84;;;;;;;5.77;60.21;99066.48;346276;115;1962024;-73
2021/05/04 01:52:42;;;;;;;7.17;3.26;;;;;;;5.76;60.03;99067.48;346407;115;1961942;-72
2021/05/04 01:53:47;;;;;;;5.01;2.73;;;;;;;5.76;60.22;99063.97;345400;115;1961939;-72
2021/05/04 01:54:52;;;;;;;5.65;2.58;;;;;;;5.72;60.38;99067.03;344513;115;1961993;-72
2021/05/04 01:55:58;;;;;;;6.70;3.23;;;;;;;5.73;60.68;99067.86;345482;116;1960680;-72
2021/05/04 01:57:05;;;;;;;5.04;2.56;;;;;;;5.74;60.50;99064.15;345908;116;1960650;-72
2021/05/04 01:58:11;;;;;;;5.57;2.58;;;;;;;5.73;60.71;99073.22;344283;115;1961994;-72
2021/05/04 01:59:17;;;;;;;6.83;2.92;;;;;;;5.73;60.50;99059.82;345763;116;1961868;-72
2021/05/04 02:00:24;;;;;;;5.87;2.64;;;;;;;5.75;60.45;99063.15;305680;107;2814702;-72
2021/05/04 02:01:30;;;;;;;7.23;2.78;;;;;;;5.72;60.44;99061.67;329128;111;1964023;-72
2021/05/04 02:02:36;;;;;;;5.97;2.39;;;;;;;5.67;61.08;99066.77;333757;114;1963060;-72
2021/05/04 02:03:41;;;;;;;6.34;2.87;;;;;;;5.63;61.34;99061.97;356301;113;1961989;-72
2021/05/04 02:04:48;;;;;;;8.32;3.41;;;;;;;5.64;61.15;99069.01;354879;112;1962888;-72
2021/05/04 02:05:53;;;;;;;8.18;3.34;;;;;;;5.57;61.50;99066.23;332531;111;2353928;-72
2021/05/04 02:07:00;;;;;;;6.68;2.96;;;;;;;5.66;61.33;99054.41;332503;112;1964013;-71
2021/05/04 02:08:06;;;;;;;6.37;2.57;;;;;;;5.69;61.13;99066.59;355107;111;1962984;-72
2021/05/04 02:09:13;;;;;;;5.50;2.88;;;;;;;5.69;61.20;99058.55;356292;111;1962043;-72
2021/05/04 02:10:19;;;;;;;6.07;2.85;;;;;;;5.71;61.20;99080.61;344284;117;1964098;-72
2021/05/04 02:11:24;;;;;;;7.82;3.01;;;;;;;5.68;61.22;99078.31;348047;114;1961961;-72
2021/05/04 02:12:30;;;;;;;6.61;2.81;;;;;;;5.70;61.33;99063.70;346473;114;1961980;-72
2021/05/04 02:13:36;;;;;;;5.50;3.45;;;;;;;5.69;61.36;99079.99;345403;115;1964993;-71
2021/05/04 02:14:42;;;;;;;5.15;2.79;;;;;;;5.67;61.35;99069.45;331040;110;2314090;-70
2021/05/04 02:15:47;;;;;;;7.00;2.65;;;;;;;5.63;61.45;99086.08;340716;111;1961950;-73
2021/05/04 02:16:55;;;;;;;6.54;2.67;;;;;;;5.70;61.24;99076.28;348389;113;1963001;-73
2021/05/04 02:18:01;;;;;;;8.04;3.34;;;;;;;5.68;61.26;99075.63;315317;116;2568056;-72
2021/05/04 02:19:06;;;;;;;5.67;3.12;;;;;;;5.66;61.56;99077.66;321633;116;1962027;-72
2021/05/04 02:20:13;;;;;;;6.53;2.78;;;;;;;5.64;61.48;99067.16;348086;116;1962970;-72
2021/05/04 02:21:18;;;;;;;5.35;2.88;;;;;;;5.64;61.66;99060.97;348789;114;1963994;-71
2021/05/04 02:22:24;;;;;;;6.88;3.24;;;;;;;5.63;61.86;99068.16;349898;113;1962929;-73
2021/05/04 02:23:31;;;;;;;5.51;2.87;;;;;;;5.61;61.95;99072.89;310790;116;2675989;-72
2021/05/04 02:24:36;;;;;;;5.98;2.99;;;;;;;5.63;61.76;99062.80;348912;116;1961876;-71
2021/05/04 02:25:41;;;;;;;6.31;3.38;;;;;;;5.64;61.71;99063.66;351605;112;1961967;-71
2021/05/04 02:26:48;;;;;;;6.14;3.39;;;;;;;5.64;61.72;99064.47;349233;116;1962037;-72
2021/05/04 02:27:54;;;;;;;6.77;3.13;;;;;;;5.58;62.17;99065.20;310115;116;2887992;-72
2021/05/04 02:29:00;;;;;;;6.58;3.48;;;;;;;5.59;61.99;99063.39;325837;116;1961922;-71
2021/05/04 02:30:06;;;;;;;5.26;2.96;;;;;;;5.58;62.25;99069.74;350316;114;1961965;-72
2021/05/04 02:31:13;;;;;;;8.10;3.71;;;;;;;5.60;62.31;99057.00;344884;116;1961992;-72
2021/05/04 02:32:19;;;;;;;6.39;3.41;;;;;;;5.56;62.46;99058.38;317329;114;2552069;-72
2021/05/04 02:33:24;;;;;;;5.54;3.36;;;;;;;5.61;62.31;99059.50;322332;113;1962052;-72
2021/05/04 02:34:30;;;;;;;7.93;3.67;;;;;;;5.61;62.03;99072.04;348084;116;1961992;-72
2021/05/04 02:35:35;;;;;;;7.04;3.36;;;;;;;5.62;62.02;99065.68;349336;116;1962044;-72
2021/05/04 02:36:42;;;;;;;8.48;3.84;;;;;;;5.62;62.25;99057.64;348609;116;1963990;-73
2021/05/04 02:37:48;;;;;;;7.13;3.74;;;;;;;5.63;62.10;99057.44;324464;116;2925954;-73
2021/05/04 02:38:53;;;;;;;7.03;3.53;;;;;;;5.65;62.22;99074.16;345267;115;1962047;-72
2021/05/04 02:39:59;;;;;;;9.33;3.59;;;;;;;5.62;62.39;99068.36;348490;116;1964999;-73
2021/05/04 02:41:06;;;;;;;6.37;3.46;;;;;;;5.64;62.21;99061.80;349834;116;1961923;-73
2021/05/04 02:42:12;;;;;;;8.84;3.94;;;;;;;5.65;62.26;99073.34;306829;116;2739991;-73
2021/05/04 02:43:17;;;;;;;6.69;3.28;;;;;;;5.67;62.28;99072.13;320545;113;1965336;-72
2021/05/04 02:44:22;;;;;;;6.56;3.49;;;;;;;5.67;62.29;99077.48;336209;116;1961837;-71
2021/05/04 02:45:28;;;;;;;7.83;3.19;;;;;;;5.67;62.31;99072.13;349297;116;1961995;-71
2021/05/04 02:46:35;;;;;;;5.87;3.56;;;;;;;5.63;62.44;99080.73;348580;114;1962097;-72
2021/05/04 02:47:41;;;;;;;7.53;3.83;;;;;;;5.63;62.60;99076.19;326184;114;2398828;-72
2021/05/04 02:48:46;;;;;;;9.72;3.67;;;;;;;5.68;62.36;99072.95;326195;116;1962944;-72
2021/05/04 02:49:51;;;;;;;5.72;2.98;;;;;;;5.67;62.36;99065.95;349676;116;1963979;-71
2021/05/04 02:50:57;;;;;;;7.15;3.56;;;;;;;5.67;62.42;99079.34;349620;114;1961962;-71
2021/05/04 02:52:03;;;;;;;7.74;3.23;;;;;;;5.69;62.52;99078.14;349540;116;1960785;-71
2021/05/04 02:53:09;;;;;;;8.52;3.67;;;;;;;5.70;62.21;99076.28;348512;116;1960832;-72
2021/05/04 02:54:14;;;;;;;8.03;3.45;;;;;;;5.70;62.37;99078.97;293633;116;2216096;-72
2021/05/04 02:55:31;;;;;;;5.94;2.97;;;;;;;5.74;62.07;99077.55;346467;106;1962857;-72
2021/05/04 02:56:37;;;;;;;6.06;3.07;;;;;;;5.70;62.29;99082.47;360265;112;1963948;-72
2021/05/04 02:57:43;;;;;;;7.07;3.39;;;;;;;5.73;62.39;99079.41;356555;112;1963088;-72
2021/05/04 02:58:49;;;;;;;7.64;3.22;;;;;;;5.76;62.40;99083.55;325554;112;2529980;-72
2021/05/04 02:59:54;;;;;;;5.74;3.24;;;;;;;5.74;62.35;99085.59;348693;108;1960994;-73
2021/05/04 03:01:00;;;;;;;8.06;3.05;;;;;;;5.79;62.11;99077.81;361622;109;1961961;-72
2021/05/04 03:02:05;;;;;;;6.76;2.76;;;;;;;5.75;62.47;99084.59;366078;111;1960745;-73
2021/05/04 03:03:12;;;;;;;6.88;3.18;;;;;;;5.80;62.06;99074.13;363126;109;1964089;-72
2021/05/04 03:04:18;;;;;;;6.17;3.16;;;;;;;5.79;62.12;99088.53;307870;109;2221013;-72
2021/05/04 03:05:23;;;;;;;6.12;3.22;;;;;;;5.77;62.41;99079.02;331537;109;1961971;-73
2021/05/04 03:06:28;;;;;;;4.82;2.85;;;;;;;5.78;62.30;99091.42;365296;109;1960958;-72
2021/05/04 03:07:34;;;;;;;8.94;3.31;;;;;;;5.76;62.38;99083.55;362841;111;1960939;-72
2021/05/04 03:08:39;;;;;;;7.16;3.16;;;;;;;5.76;62.48;99077.38;368019;109;1963018;-72
2021/05/04 03:09:44;;;;;;;5.43;3.28;;;;;;;5.76;62.35;99085.41;365430;109;1961957;-71
2021/05/04 03:10:51;;;;;;;7.39;3.45;;;;;;;5.76;62.44;99099.64;366092;109;1964953;-72
2021/05/04 03:11:56;;;;;;;7.29;3.64;;;;;;;5.72;62.52;99083.12;330392;109;2523011;-72
2021/05/04 03:13:01;;;;;;;5.52;3.07;;;;;;;5.71;62.59;99100.20;339237;109;1961974;-72
2021/05/04 03:14:07;;;;;;;7.08;4.17;;;;;;;5.70;62.71;99098.55;367209;109;1961903;-72
2021/05/04 03:15:13;;;;;;;7.46;3.65;;;;;;;5.75;62.47;99094.48;364594;108;1960936;-72
2021/05/04 03:16:18;;;;;;;6.82;3.08;;;;;;;5.76;62.40;99080.88;361125;111;1961960;-72
2021/05/04 03:17:24;;;;;;;7.91;3.83;;;;;;;5.77;62.24;99087.92;362484;111;1961980;-73
2021/05/04 03:18:30;;;;;;;6.75;3.03;;;;;;;5.80;62.17;99094.75;325068;111;2631983;-72
2021/05/04 03:19:36;;;;;;;7.44;3.29;;;;;;;5.79;62.19;99085.85;362401;109;1961986;-73
2021/05/04 03:20:42;;;;;;;6.42;3.32;;;;;;;5.75;62.55;99084.59;362180;111;1962031;-73
2021/05/04 03:21:47;;;;;;;7.47;3.88;;;;;;;5.79;62.47;99087.70;363283;111;1961936;-72
2021/05/04 03:22:54;;;;;;;6.98;3.44;;;;;;;5.81;62.27;99094.55;364426;110;1960767;-72
2021/05/04 03:23:59;;;;;;;6.56;3.29;;;;;;;5.84;62.21;99086.12;341620;111;2325067;-72
2021/05/04 03:25:05;;;;;;;6.86;3.82;;;;;;;5.83;62.32;99099.73;348102;111;1962142;-71
2021/05/04 03:26:11;;;;;;;7.34;3.49;;;;;;;5.80;62.54;99095.58;362154;110;1961942;-72
2021/05/04 03:27:17;;;;;;;5.22;3.12;;;;;;;5.80;62.52;99086.70;362211;111;1961939;-73
2021/05/04 03:28:24;;;;;;;9.18;3.64;;;;;;;5.84;62.32;99096.02;333281;109;1961975;-69
2021/05/04 03:29:29;;;;;;;6.62;3.33;;;;;;;5.82;62.58;99101.58;349030;109;1963107;-72
2021/05/04 03:30:37;;;;;;;7.50;4.04;;;;;;;5.77;62.87;99095.95;362483;111;1961976;-72
2021/05/04 03:31:43;;;;;;;6.62;3.29;;;;;;;5.84;62.58;99096.02;342532;111;2345915;-72
2021/05/04 03:32:49;;;;;;;7.23;3.14;;;;;;;5.82;62.77;99090.00;340659;108;1962042;-72
2021/05/04 03:33:54;;;;;;;8.71;4.29;;;;;;;5.85;62.57;99108.41;364045;109;1961996;-73
2021/05/04 03:35:00;;;;;;;5.96;3.09;;;;;;;5.88;62.53;99094.63;363510;110;1962031;-73
2021/05/04 03:36:06;;;;;;;7.18;3.77;;;;;;;5.93;62.38;99105.62;365758;110;1961983;-72
2021/05/04 03:37:12;;;;;;;8.04;3.85;;;;;;;5.96;62.32;99099.08;326682;110;2652939;-71
2021/05/04 03:38:18;;;;;;;7.88;3.47;;;;;;;5.97;62.23;99104.23;365293;108;1961963;-72
2021/05/04 03:39:23;;;;;;;6.94;3.49;;;;;;;5.94;62.35;99109.98;365796;110;1961989;-72
2021/05/04 03:40:30;;;;;;;6.54;3.68;;;;;;;5.98;62.33;99105.05;364295;110;1961994;-72
2021/05/04 03:41:36;;;;;;;6.07;3.41;;;;;;;6.01;62.11;99113.56;318971;110;2820024;-72
2021/05/04 03:42:41;;;;;;;7.31;3.89;;;;;;;6.00;62.30;99093.13;330439;110;1962024;-72
2021/05/04 03:43:47;;;;;;;6.61;3.47;;;;;;;5.99;62.34;99107.56;364001;110;1960921;-72
2021/05/04 03:44:52;;;;;;;7.96;4.09;;;;;;;6.04;62.15;99099.78;362476;110;1962027;-72
2021/05/04 03:45:57;;;;;;;6.17;3.55;;;;;;;6.07;62.12;99117.34;364124;110;1961800;-73
2021/05/04 03:47:03;;;;;;;6.69;3.66;;;;;;;6.06;62.21;99115.66;365328;110;1960785;-73
2021/05/04 03:48:09;;;;;;;6.36;3.46;;;;;;;6.09;62.38;99109.94;364802;109;1962890;-73
2021/05/04 03:49:15;;;;;;;6.54;3.70;;;;;;;6.12;62.02;99118.42;335529;111;2430871;-72
2021/05/04 03:50:23;;;;;;;7.53;4.03;;;;;;;6.14;62.00;99110.20;362025;109;1962066;-72
2021/05/04 03:51:30;;;;;;;7.09;3.54;;;;;;;6.16;61.98;99108.13;364195;111;1963921;-72
2021/05/04 03:52:35;;;;;;;7.61;3.94;;;;;;;6.21;61.81;99124.48;363140;108;1961933;-72
2021/05/04 03:53:41;;;;;;;8.47;3.61;;;;;;;6.23;61.71;99113.58;361014;109;1961950;-72
2021/05/04 03:54:46;;;;;;;8.83;3.54;;;;;;;6.21;61.86;99115.61;362879;111;1961911;-72
2021/05/04 03:55:52;;;;;;;9.33;4.53;;;;;;;6.26;61.64;99137.33;360288;111;1964027;-72
2021/05/04 03:56:58;;;;;;;7.21;3.54;;;;;;;6.23;61.89;99113.58;329927;111;2532996;-72
2021/05/04 03:58:03;;;;;;;7.24;3.78;;;;;;;6.26;61.91;99100.60;336340;111;1961957;-71
2021/05/04 03:59:08;;;;;;;7.06;3.32;;;;;;;6.26;61.79;99103.28;356655;111;1963983;-72
2021/05/04 04:00:16;;;;;;;6.78;3.74;;;;;;;6.29;61.81;99104.75;362453;111;1964956;-72
2021/05/04 04:01:22;;;;;;;6.82;4.03;;;;;;;6.33;61.54;99106.05;363460;111;1962008;-74
2021/05/04 04:02:28;;;;;;;6.99;3.56;;;;;;;6.35;61.54;99112.02;342685;109;1961994;-73
2021/05/04 04:03:33;;;;;;;6.80;3.79;;;;;;;6.33;61.61;99132.87;361087;111;1964058;-72
2021/05/04 04:04:38;;;;;;;7.64;4.00;;;;;;;6.33;61.62;99122.14;363021;109;1962025;-72
2021/05/04 04:05:44;;;;;;;5.89;3.37;;;;;;;6.40;61.44;99120.33;361874;111;1962011;-72
2021/05/04 04:06:49;;;;;;;8.68;3.77;;;;;;;6.41;61.52;99107.77;365610;108;1961960;-72
2021/05/04 04:07:55;;;;;;;10.46;4.91;;;;;;;6.44;61.34;99139.57;363178;110;1962955;-72
2021/05/04 04:09:01;;;;;;;7.27;4.03;;;;;;;6.47;61.25;99112.35;341971;110;2356290;-71
2021/05/04 04:10:09;;;;;;;6.49;3.33;;;;;;;6.46;61.27;99116.07;363819;108;1961944;-72
2021/05/04 04:11:25;;;;;;;6.80;3.97;;;;;;;6.49;61.38;99123.73;365374;108;1962995;-73
2021/05/04 04:12:30;;;;;;;8.31;3.84;;;;;;;6.53;61.31;99123.13;349532;109;2302937;-72
2021/05/04 04:13:35;;;;;;;7.42;4.19;;;;;;;6.54;61.39;99119.44;342384;109;1964050;-72
2021/05/04 04:14:41;;;;;;;8.18;4.59;;;;;;;6.57;61.20;99131.64;356433;112;1961882;-72
2021/05/04 04:15:46;;;;;;;7.67;3.35;;;;;;;6.59;61.03;99117.01;361520;110;1962052;-72
2021/05/04 04:16:52;;;;;;;8.08;4.54;;;;;;;6.60;61.09;99115.15;366862;110;1963931;-73
2021/05/04 04:17:59;;;;;;;5.83;3.53;;;;;;;6.62;61.10;99115.80;366643;110;1961894;-73
2021/05/04 04:19:04;;;;;;;8.25;4.51;;;;;;;6.67;60.91;99110.67;335947;112;2362882;-72
2021/05/04 04:20:10;;;;;;;7.13;3.98;;;;;;;6.72;60.77;99108.24;363126;111;1961206;-72
2021/05/04 04:21:16;;;;;;;6.71;3.67;;;;;;;6.67;61.07;99118.73;363617;111;1961838;-72
2021/05/04 04:22:21;;;;;;;10.50;4.74;;;;;;;6.70;61.05;99115.65;361796;111;1962002;-73
2021/05/04 04:23:26;;;;;;;7.32;3.81;;;;;;;6.76;60.74;99122.09;363213;110;1961996;-74
2021/05/04 04:24:32;;;;;;;6.45;3.79;;;;;;;6.77;60.61;99119.22;362032;111;1961009;-72
2021/05/04 04:25:38;;;;;;;7.64;3.97;;;;;;;6.26;60.56;99030.87;320603;110;2665990;-72
2021/05/04 04:26:45;;;;;;;8.32;3.94;;;;;;;6.79;60.69;99109.09;365045;111;1961893;-72
2021/05/04 04:27:51;;;;;;;8.71;3.91;;;;;;;6.79;60.73;99124.37;364432;111;1962021;-72
2021/05/04 04:28:56;;;;;;;7.58;3.79;;;;;;;6.83;60.60;99126.48;363542;111;1961967;-72
2021/05/04 04:30:04;;;;;;;8.45;4.26;;;;;;;6.81;60.53;99114.28;347547;111;2936941;-72
2021/05/04 04:31:09;;;;;;;9.46;5.01;;;;;;;6.94;60.34;99121.61;362108;111;1962888;-72
2021/05/04 04:32:15;;;;;;;7.96;4.27;;;;;;;6.97;60.11;99122.03;361226;111;1962948;-73
2021/05/04 04:33:25;;;;;;;8.50;4.13;;;;;;;6.93;60.18;99133.36;364145;111;1961988;-72
2021/05/04 04:34:32;;;;;;;7.67;3.72;;;;;;;6.91;60.40;99128.20;363315;111;1961961;-72
2021/05/04 04:35:37;;;;;;;6.63;3.85;;;;;;;7.01;60.19;99114.41;346612;111;1961939;-72
2021/05/04 04:36:43;;;;;;;7.57;3.56;;;;;;;7.08;60.00;99125.21;364194;111;1965266;-72
2021/05/04 04:37:48;;;;;;;7.49;4.12;;;;;;;7.14;59.87;99119.05;362825;111;1961929;-72
2021/05/04 04:38:54;;;;;;;7.50;4.09;;;;;;;7.16;59.80;99122.37;376369;105;1962004;-72
2021/05/04 04:40:01;;;;;;;6.98;4.06;;;;;;;7.18;59.78;99114.95;349881;109;2313003;-73
2021/05/04 04:41:07;;;;;;;7.32;4.19;;;;;;;7.21;59.82;99126.12;371206;107;1962963;-71
2021/05/04 04:42:12;;;;;;;7.69;3.96;;;;;;;7.25;59.58;99113.96;377639;107;1961973;-70
2021/05/04 04:43:17;;;;;;;6.99;3.57;;;;;;;7.30;59.49;99116.03;373927;107;1962013;-72
2021/05/04 04:44:22;;;;;;;8.41;3.95;;;;;;;7.27;59.44;99122.63;375243;106;1961948;-72
2021/05/04 04:45:28;;;;;;;7.47;3.72;;;;;;;7.39;59.28;99120.23;374872;107;1963992;-73
2021/05/04 04:46:43;;;;;;;8.11;4.52;;;;;;;7.41;59.28;99125.39;377326;107;1962004;-72
2021/05/04 04:47:49;;;;;;;7.81;4.54;;;;;;;7.47;59.09;99124.61;376275;107;1961984;-72
2021/05/04 04:48:54;;;;;;;7.23;4.06;;;;;;;7.45;58.93;99118.60;344169;107;2485978;-72
2021/05/04 04:50:00;;;;;;;9.40;4.36;;;;;;;7.40;59.07;99129.12;345562;107;1963986;-72
2021/05/04 04:51:05;;;;;;;8.54;4.84;;;;;;;7.44;59.17;99131.22;372453;107;1961989;-72
2021/05/04 04:52:10;;;;;;;7.81;4.15;;;;;;;7.49;58.95;99136.00;376518;107;1961955;-72
2021/05/04 04:53:15;;;;;;;8.72;4.29;;;;;;;7.52;58.89;99134.78;375781;107;1963043;-72
2021/05/04 04:54:21;;;;;;;7.37;3.98;;;;;;;7.57;58.86;99134.98;373819;107;1963990;-72
2021/05/04 04:55:26;;;;;;;8.27;3.89;;;;;;;7.58;58.74;99115.16;375340;107;1961945;-72
2021/05/04 04:56:34;;;;;;;7.63;3.96;;;;;;;7.64;58.79;99128.61;375184;107;1960631;-73
2021/05/04 04:57:39;;;;;;;6.94;3.88;;;;;;;7.65;58.72;99143.73;373062;107;1963982;-72
2021/05/04 04:58:44;;;;;;;8.43;4.52;;;;;;;7.71;58.42;99128.65;376843;107;1961986;-74
2021/05/04 04:59:50;;;;;;;8.33;4.33;;;;;;;7.77;58.46;99122.46;374457;107;1963961;-72
2021/05/04 05:00:55;;;;;;;9.43;4.42;;;;;;;7.80;58.32;99132.81;375362;107;1961841;-71
2021/05/04 05:02:01;;;;;;;10.58;4.12;;;;;;;7.80;58.27;99135.50;374730;107;1961933;-72
2021/05/04 05:03:07;;;;;;;8.91;4.56;;;;;;;7.76;58.13;99153.08;376449;107;1961929;-72
2021/05/04 05:04:12;;;;;;;7.62;3.83;;;;;;;7.84;57.84;99130.56;343174;107;2538301;-74
2021/05/04 05:05:21;;;;;;;7.68;4.29;;;;;;;7.90;57.80;99138.64;348997;107;1961981;-71
2021/05/04 05:06:29;;;;;;;7.70;4.53;;;;;;;7.92;57.71;99138.45;371263;107;1961932;-72